Time;durP1;ratioP1;P1;durP2;ratioP2;P2;SDS_P1;SDS_P2;PMS_P1;PMS_P2;Temp;Humidity;BMP_temperature;BMP_pressure;BME280_temperature;BME280_humidity;BME280_pressure;Samples;Min_cycle;Max_cycle;Signal;HPM_P1;HPM_P2
2022/07/27 00:00:10;;;;;;;3.87;3.57;;;19.20;99.90;;;;;;5082334;28;20241;-88
2022/07/27 00:02:35;;;;;;;4.13;3.63;;;19.20;99.90;;;;;;5086562;28;20217;-88
2022/07/27 00:05:01;;;;;;;4.40;3.23;;;19.20;99.90;;;;;;5083455;28;21011;-88
2022/07/27 00:07:26;;;;;;;6.13;3.50;;;19.10;99.90;;;;;;5079017;28;20318;-88
2022/07/27 00:09:52;;;;;;;7.73;3.63;;;19.20;99.90;;;;;;5081047;28;20180;-89
2022/07/27 00:12:17;;;;;;;4.70;3.77;;;19.10;99.90;;;;;;5082371;28;20204;-89
2022/07/27 00:14:43;;;;;;;7.50;3.50;;;19.10;99.90;;;;;;5078050;28;20187;-87
2022/07/27 00:17:08;;;;;;;7.00;3.23;;;19.10;99.90;;;;;;5083287;28;20252;-88
2022/07/27 00:19:34;;;;;;;6.73;4.50;;;19.10;99.90;;;;;;5083005;28;20180;-86
2022/07/27 00:22:00;;;;;;;4.03;3.63;;;19.10;99.90;;;;;;5090293;28;20199;-87
2022/07/27 00:24:26;;;;;;;6.83;3.70;;;19.10;99.90;;;;;;5089165;28;21342;-89
2022/07/27 00:26:51;;;;;;;4.83;3.70;;;19.10;99.90;;;;;;5090973;28;20208;-89
2022/07/27 00:29:17;;;;;;;7.73;4.60;;;19.10;99.90;;;;;;5082389;28;20505;-86
2022/07/27 00:31:43;;;;;;;3.33;3.03;;;19.00;99.90;;;;;;5075239;28;20214;-87
2022/07/27 00:34:08;;;;;;;6.83;3.67;;;18.90;99.90;;;;;;5076367;28;20230;-89
2022/07/27 00:36:34;;;;;;;4.93;3.33;;;18.90;99.90;;;;;;5083882;28;20225;-87
2022/07/27 00:38:59;;;;;;;4.37;3.10;;;18.90;99.90;;;;;;5076904;28;20237;-89
2022/07/27 00:41:25;;;;;;;10.10;4.10;;;18.90;99.90;;;;;;5079638;28;21325;-88
2022/07/27 00:43:52;;;;;;;5.90;4.37;;;18.80;99.90;;;;;;5076610;28;20175;-89
2022/07/27 00:46:18;;;;;;;11.63;3.60;;;18.70;99.90;;;;;;5079300;28;20180;-88
2022/07/27 00:48:43;;;;;;;6.60;3.60;;;18.70;99.90;;;;;;5077720;28;20481;-89
2022/07/27 00:51:10;;;;;;;6.10;3.73;;;18.60;99.90;;;;;;5080784;28;20603;-88
2022/07/27 00:53:36;;;;;;;10.70;3.90;;;18.60;99.90;;;;;;5077503;28;20243;-88
2022/07/27 00:56:02;;;;;;;4.30;3.33;;;;;;;;;;5082994;28;20438;-87
2022/07/27 00:58:28;;;;;;;11.37;3.63;;;18.60;99.90;;;;;;5098529;28;20183;-88
2022/07/27 01:00:59;;;;;;;3.60;3.23;;;21.80;99.90;;;;;;5089327;28;20443;-90
2022/07/27 01:03:24;;;;;;;4.93;3.90;;;18.60;99.90;;;;;;5090477;28;20488;-89
2022/07/27 01:05:50;;;;;;;9.10;3.83;;;18.50;99.90;;;;;;5091837;28;20437;-88
2022/07/27 01:08:16;;;;;;;4.50;3.93;;;18.40;99.90;;;;;;5086936;28;20204;-89
2022/07/27 01:10:42;;;;;;;7.53;3.77;;;18.30;99.90;;;;;;5083951;28;20196;-89
2022/07/27 01:13:08;;;;;;;4.10;3.80;;;;;;;;;;5088211;28;20212;-91
2022/07/27 01:15:36;;;;;;;7.43;4.27;;;18.30;99.90;;;;;;5083807;28;20445;-89
2022/07/27 01:18:01;;;;;;;5.80;3.70;;;18.30;99.90;;;;;;5084842;28;20454;-90
2022/07/27 01:20:27;;;;;;;4.00;3.60;;;18.30;99.90;;;;;;5090807;28;20493;-89
2022/07/27 01:22:53;;;;;;;4.80;3.50;;;18.30;99.90;;;;;;5089482;28;20204;-90
2022/07/27 01:25:18;;;;;;;5.97;3.70;;;18.20;99.90;;;;;;5089201;28;20847;-89
2022/07/27 01:27:44;;;;;;;4.00;3.60;;;18.20;99.90;;;;;;5079437;28;20200;-87
2022/07/27 01:30:26;;;;;;;4.97;3.70;;;18.20;99.90;;;;;;5084997;28;20229;-88
2022/07/27 01:32:59;;;;;;;5.00;3.60;;;18.20;99.90;;;;;;5093003;28;20230;-87
2022/07/27 01:35:24;;;;;;;5.43;4.17;;;18.30;99.90;;;;;;5092768;28;20435;-88
2022/07/27 01:37:50;;;;;;;5.73;3.73;;;18.40;99.90;;;;;;5094372;28;20543;-87
2022/07/27 01:40:15;;;;;;;5.43;3.20;;;18.30;99.90;;;;;;5084197;28;20229;-87
2022/07/27 01:42:41;;;;;;;5.13;3.30;;;18.30;99.90;;;;;;5081770;28;20209;-89
2022/07/27 01:45:07;;;;;;;6.53;3.27;;;18.20;99.90;;;;;;5081420;28;20184;-88
2022/07/27 01:47:33;;;;;;;5.93;3.27;;;18.20;99.90;;;;;;5084435;28;20668;-87
2022/07/27 01:49:58;;;;;;;3.90;3.50;;;18.10;99.90;;;;;;5077648;28;20495;-85
2022/07/27 01:52:24;;;;;;;7.83;4.07;;;18.10;99.90;;;;;;5078057;28;20739;-87
2022/07/27 01:54:49;;;;;;;10.33;4.07;;;18.30;99.90;;;;;;5079154;28;20825;-86
2022/07/27 01:57:15;;;;;;;5.63;4.40;;;18.10;99.90;;;;;;5079187;28;20190;-88
2022/07/27 01:59:40;;;;;;;7.30;3.83;;;18.00;99.90;;;;;;5080367;28;20194;-87
2022/07/27 02:02:06;;;;;;;6.47;4.63;;;;;;;;;;5077597;28;21148;-88
2022/07/27 02:04:32;;;;;;;10.40;4.20;;;17.90;99.90;;;;;;5080178;28;20191;-86
2022/07/27 02:06:57;;;;;;;7.83;4.67;;;18.20;99.90;;;;;;5081382;28;20457;-85
2022/07/27 02:09:24;;;;;;;6.90;3.90;;;17.90;99.90;;;;;;5079277;28;20184;-88
2022/07/27 02:14:34;;;;;;;6.47;3.50;;;17.80;99.90;;;;;;5078439;28;20417;-88
2022/07/27 02:17:00;;;;;;;7.23;4.10;;;17.70;99.90;;;;;;5079285;28;20442;-87
2022/07/27 02:19:27;;;;;;;6.37;3.93;;;17.70;99.90;;;;;;5078134;28;20258;-87
2022/07/27 02:21:52;;;;;;;6.10;4.17;;;17.60;99.90;;;;;;5080279;28;20195;-87
2022/07/27 02:24:18;;;;;;;9.47;4.17;;;;;;;;;;5083199;28;20514;-87
2022/07/27 02:26:44;;;;;;;5.30;4.43;;;17.60;99.90;;;;;;5082476;28;20183;-87
2022/07/27 02:29:10;;;;;;;5.77;4.33;;;18.40;99.90;;;;;;5086458;28;20522;-88
2022/07/27 02:31:35;;;;;;;11.40;5.20;;;17.60;99.90;;;;;;5086064;28;20237;-87
2022/07/27 02:34:01;;;;;;;8.87;4.17;;;17.60;99.90;;;;;;5085519;28;20191;-87
2022/07/27 02:36:29;;;;;;;4.90;4.40;;;17.50;99.90;;;;;;5085150;28;20175;-88
2022/07/27 02:38:55;;;;;;;6.37;4.50;;;17.50;99.90;;;;;;5080627;28;20850;-87
2022/07/27 02:41:21;;;;;;;6.70;4.30;;;17.50;99.90;;;;;;5079552;28;20441;-88
2022/07/27 02:43:46;;;;;;;9.57;4.40;;;17.50;99.90;;;;;;5079481;28;20943;-87
2022/07/27 02:46:12;;;;;;;6.53;4.17;;;17.50;99.90;;;;;;5073687;28;20184;-88
2022/07/27 02:48:38;;;;;;;7.03;4.37;;;17.60;99.90;;;;;;5076898;28;20204;-87
2022/07/27 02:51:03;;;;;;;8.17;3.83;;;17.50;99.90;;;;;;5076551;28;20272;-87
2022/07/27 02:53:29;;;;;;;4.47;4.07;;;17.50;99.90;;;;;;5092396;28;20207;-86
2022/07/27 02:55:55;;;;;;;8.10;4.30;;;17.40;99.90;;;;;;5080492;28;20172;-86
2022/07/27 02:58:21;;;;;;;5.23;4.17;;;17.40;99.90;;;;;;5078623;28;20445;-88
2022/07/27 03:00:46;;;;;;;6.60;4.23;;;17.50;99.90;;;;;;5076095;28;20437;-87
2022/07/27 03:03:12;;;;;;;6.30;4.40;;;19.20;99.90;;;;;;5081047;28;20291;-88
2022/07/27 03:05:38;;;;;;;8.83;5.10;;;17.60;99.90;;;;;;5095761;28;20183;-88
2022/07/27 03:08:04;;;;;;;4.77;4.20;;;17.60;99.90;;;;;;5080296;28;20461;-89
2022/07/27 03:10:30;;;;;;;4.93;4.20;;;18.00;99.90;;;;;;5077346;28;21588;-88
2022/07/27 03:12:56;;;;;;;4.93;4.10;;;17.60;99.90;;;;;;5079660;28;20529;-87
2022/07/27 03:15:22;;;;;;;7.10;4.47;;;17.50;99.90;;;;;;5080114;28;20499;-87
2022/07/27 03:17:47;;;;;;;5.53;4.70;;;17.40;99.90;;;;;;5077532;28;20782;-87
2022/07/27 03:20:13;;;;;;;5.30;3.70;;;17.40;99.90;;;;;;5077529;28;20286;-87
2022/07/27 03:22:38;;;;;;;6.30;4.30;;;17.40;99.90;;;;;;5079236;28;20260;-86
2022/07/27 03:25:05;;;;;;;4.73;4.10;;;17.40;99.90;;;;;;5084111;28;20671;-87
2022/07/27 03:27:30;;;;;;;4.70;4.00;;;17.50;99.90;;;;;;5087093;28;20325;-86
2022/07/27 03:29:56;;;;;;;4.47;3.80;;;17.80;99.90;;;;;;5086026;28;20494;-86
2022/07/27 03:32:22;;;;;;;7.10;4.43;;;17.50;99.90;;;;;;5087548;28;20310;-88
2022/07/27 03:34:47;;;;;;;8.57;4.70;;;17.50;99.90;;;;;;5086154;28;20445;-86
2022/07/27 03:37:14;;;;;;;7.33;4.83;;;17.50;99.90;;;;;;5079812;28;20199;-88
2022/07/27 03:39:39;;;;;;;8.37;5.20;;;17.50;99.90;;;;;;5080417;28;20180;-88
2022/07/27 03:42:05;;;;;;;4.03;3.60;;;17.50;99.90;;;;;;5076649;28;20496;-87
2022/07/27 03:44:31;;;;;;;8.57;4.40;;;17.50;99.90;;;;;;5079355;28;20184;-87
2022/07/27 03:46:56;;;;;;;5.23;3.90;;;17.50;99.90;;;;;;5078590;28;20196;-86
2022/07/27 03:49:22;;;;;;;7.57;4.17;;;17.50;99.90;;;;;;5080593;28;20979;-87
2022/07/27 03:51:48;;;;;;;5.77;4.60;;;17.50;99.90;;;;;;5083267;28;20291;-88
2022/07/27 03:54:13;;;;;;;5.00;4.40;;;17.50;99.90;;;;;;5089036;28;20190;-87
2022/07/27 03:56:39;;;;;;;11.13;4.43;;;17.50;99.90;;;;;;5088087;28;20265;-87
2022/07/27 03:59:04;;;;;;;6.13;4.10;;;17.50;99.90;;;;;;5085771;28;20176;-88
2022/07/27 04:01:30;;;;;;;5.77;5.27;;;17.60;99.90;;;;;;5083272;28;20286;-88
2022/07/27 04:03:56;;;;;;;6.30;4.93;;;18.60;99.90;;;;;;5087199;28;20547;-87
2022/07/27 04:06:21;;;;;;;8.50;4.87;;;17.60;99.90;;;;;;5086039;28;20700;-87
2022/07/27 04:08:47;;;;;;;5.90;4.30;;;17.60;99.90;;;;;;5083708;28;20195;-88
2022/07/27 04:11:12;;;;;;;5.27;4.70;;;17.50;99.90;;;;;;5083060;28;20208;-88
2022/07/27 04:13:38;;;;;;;5.20;4.70;;;17.50;99.90;;;;;;5081850;28;20175;-87
2022/07/27 04:16:03;;;;;;;5.90;3.90;;;17.60;99.90;;;;;;5096763;28;20172;-86
2022/07/27 04:18:29;;;;;;;5.30;3.93;;;17.50;99.90;;;;;;5084402;28;20202;-87
2022/07/27 04:20:55;;;;;;;5.50;5.00;;;17.50;99.90;;;;;;5088861;28;20429;-88
2022/07/27 04:23:20;;;;;;;6.87;4.47;;;17.50;99.90;;;;;;5088284;28;20275;-88
2022/07/27 04:25:46;;;;;;;6.33;4.83;;;17.50;99.90;;;;;;5083901;28;20200;-87
2022/07/27 04:28:11;;;;;;;7.73;5.27;;;17.50;99.90;;;;;;5091457;28;20583;-88
2022/07/27 04:30:37;;;;;;;7.37;4.57;;;17.50;99.90;;;;;;5086495;28;20192;-90
2022/07/27 04:33:04;;;;;;;6.30;4.60;;;17.70;99.90;;;;;;5087363;28;20196;-90
2022/07/27 04:35:29;;;;;;;6.27;4.63;;;17.80;99.90;;;;;;5100146;28;20221;-89
2022/07/27 04:37:55;;;;;;;7.83;5.50;;;18.10;99.90;;;;;;5086763;28;20425;-88
2022/07/27 04:40:20;;;;;;;9.13;5.10;;;18.30;99.90;;;;;;5083532;28;20184;-86
2022/07/27 04:42:46;;;;;;;5.93;5.37;;;18.60;99.90;;;;;;5080164;28;20712;-85
2022/07/27 04:45:11;;;;;;;4.80;4.20;;;18.80;99.90;;;;;;5078308;28;20191;-87
2022/07/27 04:47:37;;;;;;;7.13;4.93;;;19.50;99.90;;;;;;5083102;28;20210;-84
2022/07/27 04:50:04;;;;;;;5.00;4.30;;;18.80;99.90;;;;;;5080020;28;20180;-84
2022/07/27 04:52:30;;;;;;;7.53;4.57;;;18.90;99.90;;;;;;5075207;28;20565;-85
2022/07/27 04:54:55;;;;;;;6.73;3.90;;;18.80;99.90;;;;;;5077032;28;21205;-84
2022/07/27 04:57:22;;;;;;;5.37;4.87;;;18.80;99.90;;;;;;5079631;28;20221;-84
2022/07/27 04:59:47;;;;;;;6.10;5.50;;;18.90;99.90;;;;;;5073743;28;20204;-85
2022/07/27 05:02:13;;;;;;;6.73;5.20;;;19.00;99.90;;;;;;5082253;28;20477;-84
2022/07/27 05:04:39;;;;;;;5.87;4.57;;;19.10;99.90;;;;;;5079620;28;20187;-83
2022/07/27 05:07:05;;;;;;;5.83;4.47;;;18.90;99.90;;;;;;5076069;28;20721;-85
2022/07/27 05:09:31;;;;;;;10.80;6.10;;;18.80;99.90;;;;;;5080895;28;20255;-84
2022/07/27 05:11:56;;;;;;;7.73;4.87;;;18.70;99.90;;;;;;5078081;28;20545;-83
2022/07/27 05:14:22;;;;;;;5.60;4.40;;;18.60;99.90;;;;;;5088360;28;20178;-83
2022/07/27 05:16:48;;;;;;;7.07;5.40;;;18.50;99.90;;;;;;5076983;28;20311;-83
2022/07/27 05:19:14;;;;;;;5.50;4.83;;;18.70;99.90;;;;;;5077146;28;20953;-83
2022/07/27 05:21:39;;;;;;;10.23;4.33;;;20.40;99.90;;;;;;5071486;28;20484;-84
2022/07/27 05:24:05;;;;;;;6.10;4.20;;;22.60;99.90;;;;;;5077419;28;20187;-84
2022/07/27 05:26:30;;;;;;;4.40;4.00;;;25.30;99.90;;;;;;5076841;28;20188;-84
2022/07/27 05:28:56;;;;;;;3.50;3.20;;;27.80;99.90;;;;;;5074705;28;20543;-84
2022/07/27 05:31:22;;;;;;;5.30;3.33;;;31.70;92.90;;;;;;5076368;28;20452;-85
2022/07/27 05:33:47;;;;;;;4.13;3.43;;;31.90;92.30;;;;;;5077973;28;20209;-85
2022/07/27 05:36:13;;;;;;;3.50;3.30;;;33.40;82.30;;;;;;5076986;28;20178;-84
2022/07/27 05:38:40;;;;;;;3.63;3.33;;;34.20;70.50;;;;;;5077408;28;20556;-85
2022/07/27 05:41:06;;;;;;;7.03;3.87;;;34.50;65.30;;;;;;5080652;28;20756;-84
2022/07/27 05:43:32;;;;;;;4.73;4.20;;;33.70;62.60;;;;;;5092645;28;20447;-84
2022/07/27 05:45:58;;;;;;;6.50;3.90;;;31.90;65.20;;;;;;5076535;28;20438;-83
2022/07/27 05:48:23;;;;;;;7.27;3.87;;;30.00;67.80;;;;;;5074448;28;20206;-84
2022/07/27 05:50:49;;;;;;;8.73;4.10;;;28.30;73.30;;;;;;5081528;28;20168;-85
2022/07/27 05:53:14;;;;;;;4.30;3.90;;;28.10;77.80;;;;;;5077985;28;20208;-83
2022/07/27 05:55:40;;;;;;;6.73;4.70;;;29.30;78.40;;;;;;5078220;28;20181;-85
2022/07/27 05:58:06;;;;;;;4.40;3.73;;;30.00;73.70;;;;;;5077442;28;20206;-85
2022/07/27 06:00:31;;;;;;;4.30;3.90;;;29.70;73.10;;;;;;5081480;28;20176;-85
2022/07/27 06:02:58;;;;;;;6.60;4.43;;;29.10;75.00;;;;;;5076312;28;21136;-83
2022/07/27 06:05:23;;;;;;;4.10;3.67;;;28.70;75.40;;;;;;5077022;28;20193;-84
2022/07/27 06:07:58;;;;;;;4.40;3.63;;;28.40;76.30;;;;;;5077571;28;20491;-85
2022/07/27 06:10:27;;;;;;;9.97;3.80;;;27.20;79.10;;;;;;5077972;28;20182;-85
2022/07/27 06:12:53;;;;;;;5.00;3.80;;;26.80;82.70;;;;;;5077801;28;20455;-84
2022/07/27 06:15:18;;;;;;;4.53;3.87;;;26.60;83.30;;;;;;5080354;28;20868;-84
2022/07/27 06:17:45;;;;;;;4.00;3.60;;;26.40;85.10;;;;;;5077295;28;20172;-85
2022/07/27 06:20:12;;;;;;;3.50;3.20;;;25.80;86.40;;;;;;5076844;28;20683;-84
2022/07/27 06:22:46;;;;;;;4.17;3.77;;;25.20;89.90;;;;;;5070052;28;20991;-83
2022/07/27 06:25:11;;;;;;;4.37;3.97;;;24.30;91.80;;;;;;5084786;28;20442;-85
2022/07/27 06:27:37;;;;;;;4.60;3.30;;;23.70;93.70;;;;;;5077912;28;20484;-83
2022/07/27 06:30:04;;;;;;;4.20;3.80;;;23.40;95.00;;;;;;5078525;28;20175;-85
2022/07/27 06:32:29;;;;;;;5.73;4.10;;;23.10;96.50;;;;;;5077684;28;20822;-84
2022/07/27 06:34:55;;;;;;;9.50;3.50;;;22.80;98.10;;;;;;5074944;28;20516;-83
2022/07/27 06:37:20;;;;;;;4.13;3.30;;;22.50;99.50;;;;;;5079579;28;20311;-84
2022/07/27 06:39:46;;;;;;;9.03;3.57;;;22.30;99.90;;;;;;5079519;28;20200;-84
2022/07/27 06:42:14;;;;;;;5.07;4.23;;;22.10;99.90;;;;;;5077637;28;20240;-84
2022/07/27 06:44:40;;;;;;;3.90;3.13;;;22.00;99.90;;;;;;5078306;28;20951;-84
2022/07/27 06:47:06;;;;;;;4.77;3.53;;;21.90;99.90;;;;;;5085677;28;20456;-84
2022/07/27 06:49:32;;;;;;;5.00;3.63;;;21.90;99.90;;;;;;5078598;28;20180;-85
2022/07/27 06:51:57;;;;;;;5.60;3.80;;;22.30;99.90;;;;;;5092939;28;21314;-84
2022/07/27 06:54:23;;;;;;;3.80;3.50;;;22.50;99.90;;;;;;5073948;28;20191;-85
2022/07/27 06:56:49;;;;;;;4.40;3.40;;;22.70;99.90;;;;;;5078663;28;20173;-85
2022/07/27 06:59:14;;;;;;;6.00;3.83;;;22.40;99.90;;;;;;5076239;28;20196;-86
2022/07/27 07:01:40;;;;;;;4.83;4.33;;;22.70;99.90;;;;;;5092485;28;20208;-85
2022/07/27 07:04:05;;;;;;;4.53;4.10;;;22.40;99.90;;;;;;5077559;28;20179;-85
2022/07/27 07:06:31;;;;;;;4.10;3.70;;;22.50;99.90;;;;;;5078844;28;20429;-85
2022/07/27 07:08:57;;;;;;;4.17;3.80;;;22.60;99.90;;;;;;5081721;28;20231;-84
2022/07/27 07:11:22;;;;;;;6.87;4.97;;;22.60;99.90;;;;;;5081881;28;20214;-83
2022/07/27 07:13:48;;;;;;;5.13;3.50;;;22.60;99.90;;;;;;5082026;28;20716;-85
2022/07/27 07:16:13;;;;;;;7.87;4.30;;;22.60;99.90;;;;;;5080009;28;20176;-84
2022/07/27 07:18:39;;;;;;;4.53;4.10;;;22.30;99.90;;;;;;5079855;28;20192;-81
2022/07/27 07:21:05;;;;;;;5.00;3.80;;;22.20;99.90;;;;;;5075028;28;20188;-85
2022/07/27 07:23:30;;;;;;;6.03;4.60;;;22.20;99.90;;;;;;5079352;28;20704;-84
2022/07/27 07:25:56;;;;;;;4.73;4.10;;;22.40;99.90;;;;;;5077832;28;20191;-84
2022/07/27 07:28:21;;;;;;;5.00;4.03;;;22.40;99.90;;;;;;5078247;28;20716;-83
2022/07/27 07:30:48;;;;;;;6.17;3.60;;;22.20;99.90;;;;;;5079126;28;20179;-84
2022/07/27 07:33:13;;;;;;;4.00;3.70;;;22.60;99.90;;;;;;5079264;28;20208;-84
2022/07/27 07:35:41;;;;;;;4.07;3.70;;;23.20;99.90;;;;;;5079274;28;20437;-84
2022/07/27 07:38:06;;;;;;;6.73;4.13;;;23.60;99.90;;;;;;5083262;28;20196;-84
2022/07/27 07:40:32;;;;;;;3.90;3.60;;;23.80;99.90;;;;;;5081551;28;20435;-83
2022/07/27 07:43:02;;;;;;;5.60;4.50;;;23.90;99.90;;;;;;5080899;28;20200;-83
2022/07/27 07:45:29;;;;;;;5.70;3.80;;;23.90;99.90;;;;;;5081193;28;20172;-83
2022/07/27 07:47:55;;;;;;;6.43;3.97;;;24.10;99.90;;;;;;5079457;28;20469;-84
2022/07/27 07:50:22;;;;;;;4.33;3.87;;;24.00;99.90;;;;;;5080562;28;20460;-83
2022/07/27 07:52:49;;;;;;;5.73;3.70;;;23.90;99.90;;;;;;5081291;28;20449;-83
2022/07/27 07:55:18;;;;;;;6.53;3.53;;;24.10;99.90;;;;;;5077201;28;20468;-83
2022/07/27 07:57:44;;;;;;;5.70;3.93;;;24.10;99.90;;;;;;5077814;28;21437;-84
2022/07/27 08:00:10;;;;;;;4.53;3.53;;;23.50;99.90;;;;;;5077897;28;20430;-84
2022/07/27 08:02:48;;;;;;;5.87;4.30;;;23.10;99.90;;;;;;5075905;28;20196;-83
2022/07/27 08:05:14;;;;;;;5.30;4.40;;;22.80;99.90;;;;;;5075722;28;20434;-83
2022/07/27 08:07:41;;;;;;;3.83;3.40;;;22.80;99.90;;;;;;5083573;28;20466;-83
2022/07/27 08:10:09;;;;;;;5.43;3.90;;;23.50;99.90;;;;;;5082030;28;20449;-83
2022/07/27 08:12:36;;;;;;;6.10;3.70;;;25.80;99.90;;;;;;5077142;28;20449;-84
2022/07/27 08:15:03;;;;;;;5.60;3.67;;;28.10;96.20;;;;;;5077397;28;20433;-84
2022/07/27 08:17:29;;;;;;;6.23;3.90;;;30.30;92.00;;;;;;5078340;28;20488;-83
2022/07/27 08:19:55;;;;;;;4.30;2.97;;;32.50;79.40;;;;;;5081221;28;21150;-83
2022/07/27 08:22:20;;;;;;;3.90;3.60;;;33.50;74.20;;;;;;5091244;28;20458;-83
2022/07/27 08:24:46;;;;;;;6.20;3.67;;;32.60;68.70;;;;;;5078992;28;20202;-83
2022/07/27 08:27:11;;;;;;;5.90;3.50;;;31.40;69.00;;;;;;5082432;28;20200;-83
2022/07/27 08:29:38;;;;;;;5.73;3.00;;;30.80;72.90;;;;;;5079160;28;20168;-83
2022/07/27 08:32:03;;;;;;;4.50;3.53;;;30.40;73.10;;;;;;5081011;28;20264;-82
2022/07/27 08:34:29;;;;;;;7.73;3.43;;;29.50;75.40;;;;;;5079266;28;20414;-81
2022/07/27 08:36:55;;;;;;;4.83;3.40;;;29.60;75.10;;;;;;5076646;28;20182;-82
2022/07/27 08:39:20;;;;;;;3.87;3.47;;;30.20;74.80;;;;;;5080898;28;20187;-81
2022/07/27 08:41:46;;;;;;;6.63;2.70;;;30.40;73.10;;;;;;5083607;28;20186;-82
2022/07/27 08:44:12;;;;;;;4.17;3.70;;;31.10;70.90;;;;;;5081415;28;20236;-84
2022/07/27 08:46:39;;;;;;;3.37;3.17;;;32.30;70.30;;;;;;5077430;28;20213;-83
2022/07/27 08:49:06;;;;;;;4.10;3.90;;;34.50;65.70;;;;;;5076811;28;20464;-83
2022/07/27 08:51:32;;;;;;;4.43;4.03;;;35.30;58.30;;;;;;5078499;28;20501;-84
2022/07/27 08:53:59;;;;;;;4.80;4.30;;;34.30;58.20;;;;;;5080434;28;20455;-84
2022/07/27 08:56:24;;;;;;;5.93;5.37;;;33.60;57.40;;;;;;5086563;28;20178;-83
2022/07/27 08:58:50;;;;;;;5.47;5.07;;;33.20;58.70;;;;;;5078925;28;20431;-84
2022/07/27 09:01:17;;;;;;;5.43;5.03;;;34.70;56.40;;;;;;5077277;28;20183;-84
2022/07/27 09:03:45;;;;;;;5.30;4.90;;;34.70;56.80;;;;;;5075058;28;20436;-84
2022/07/27 09:06:10;;;;;;;5.60;5.03;;;34.60;55.40;;;;;;5073708;28;20444;-84
2022/07/27 09:08:40;;;;;;;5.50;5.10;;;34.10;56.30;;;;;;5077165;28;20486;-84
2022/07/27 09:11:14;;;;;;;5.80;5.40;;;33.80;57.40;;;;;;5081111;28;20209;-84
2022/07/27 09:13:41;;;;;;;5.93;5.57;;;34.90;55.70;;;;;;5082628;28;20433;-84
2022/07/27 09:16:08;;;;;;;5.43;5.13;;;34.50;55.60;;;;;;5077195;28;20568;-84
2022/07/27 09:18:38;;;;;;;7.00;6.60;;;36.70;55.30;;;;;;5078243;28;20556;-84
2022/07/27 09:21:21;;;;;;;8.00;7.60;;;36.80;51.10;;;;;;5077218;28;20406;-84
2022/07/27 09:23:53;;;;;;;7.07;6.77;;;38.20;50.40;;;;;;5086644;28;20497;-84
2022/07/27 09:26:20;;;;;;;8.70;8.07;;;37.40;48.60;;;;;;5084603;28;20438;-84
2022/07/27 09:28:50;;;;;;;7.37;7.00;;;36.90;48.40;;;;;;5080047;28;20539;-84
2022/07/27 09:31:16;;;;;;;6.63;6.17;;;30.40;55.50;;;;;;5078194;28;20436;-84
2022/07/27 09:33:43;;;;;;;6.43;5.93;;;30.20;56.20;;;;;;5075732;28;20504;-84
2022/07/27 09:36:08;;;;;;;6.17;4.23;;;29.40;59.70;;;;;;5077748;28;20208;-83
2022/07/27 09:38:34;;;;;;;4.30;4.00;;;29.20;62.70;;;;;;5076909;28;20465;-83
2022/07/27 09:41:08;;;;;;;4.60;4.30;;;30.70;60.50;;;;;;5082673;28;20196;-83
2022/07/27 09:43:51;;;;;;;5.03;4.73;;;31.50;57.10;;;;;;5081357;28;20231;-83
2022/07/27 09:46:28;;;;;;;5.40;5.10;;;32.70;55.20;;;;;;5077022;28;20442;-84
2022/07/27 09:48:54;;;;;;;6.10;5.80;;;34.30;53.60;;;;;;5078710;28;20496;-84
2022/07/27 09:51:23;;;;;;;6.83;6.33;;;36.20;48.90;;;;;;5086476;28;20733;-84
2022/07/27 09:53:50;;;;;;;6.00;5.73;;;36.40;49.50;;;;;;5077373;28;20637;-84
2022/07/27 09:56:16;;;;;;;7.73;6.97;;;36.20;49.10;;;;;;5080450;28;20444;-84
2022/07/27 09:58:46;;;;;;;7.23;6.93;;;34.90;49.20;;;;;;5078969;28;20922;-83
2022/07/27 10:01:24;;;;;;;7.27;6.43;;;33.90;49.80;;;;;;5084898;28;20451;-83
2022/07/27 10:03:57;;;;;;;6.80;6.10;;;34.00;50.60;;;;;;5078342;28;20451;-84
2022/07/27 10:06:24;;;;;;;6.50;5.97;;;34.90;50.90;;;;;;5079451;28;20433;-84
2022/07/27 10:08:51;;;;;;;6.60;6.20;;;33.70;48.80;;;;;;5076485;28;20554;-83
2022/07/27 10:11:18;;;;;;;6.33;5.83;;;29.90;53.90;;;;;;5078400;28;20845;-84
2022/07/27 10:13:45;;;;;;;5.00;4.70;;;29.90;54.70;;;;;;5081259;28;20443;-83
2022/07/27 10:16:17;;;;;;;4.53;4.23;;;29.40;55.90;;;;;;5079670;28;20470;-84
2022/07/27 10:19:04;;;;;;;5.47;4.97;;;29.60;58.00;;;;;;5078966;28;20521;-84
2022/07/27 10:21:34;;;;;;;5.93;5.60;;;31.40;56.00;;;;;;5076757;28;20463;-84
2022/07/27 10:24:04;;;;;;;5.30;5.00;;;31.80;53.30;;;;;;5078268;28;20426;-83
2022/07/27 10:26:34;;;;;;;5.30;5.00;;;31.00;54.10;;;;;;5079989;28;20452;-83
2022/07/27 10:29:12;;;;;;;4.07;3.77;;;30.00;54.80;;;;;;5079940;28;20491;-83
2022/07/27 10:31:39;;;;;;;4.53;4.13;;;28.60;56.90;;;;;;5079551;28;20540;-83
2022/07/27 10:34:08;;;;;;;4.27;3.87;;;28.90;58.20;;;;;;5085637;28;20457;-83
2022/07/27 10:36:33;;;;;;;3.73;3.43;;;28.60;57.60;;;;;;5082902;28;20466;-83
2022/07/27 10:39:01;;;;;;;7.23;3.60;;;28.70;58.20;;;;;;5081065;28;20467;-84
2022/07/27 10:41:40;;;;;;;6.13;3.73;;;29.10;57.00;;;;;;5080668;28;20179;-83
2022/07/27 10:44:17;;;;;;;4.30;3.90;;;29.20;57.40;;;;;;5083199;28;20485;-83
2022/07/27 10:46:51;;;;;;;5.27;3.70;;;28.40;58.60;;;;;;5080402;28;20483;-82
2022/07/27 10:49:26;;;;;;;4.13;3.70;;;28.00;61.10;;;;;;5089459;28;20567;-83
2022/07/27 10:51:52;;;;;;;4.73;3.40;;;27.40;62.90;;;;;;5082689;28;20550;-85
2022/07/27 10:54:25;;;;;;;4.53;3.20;;;27.20;63.10;;;;;;5082810;28;20472;-82
2022/07/27 10:56:55;;;;;;;3.30;2.97;;;27.20;62.90;;;;;;5078988;28;20422;-82
2022/07/27 10:59:39;;;;;;;3.30;3.10;;;27.20;64.80;;;;;;5085484;28;20436;-82
2022/07/27 11:02:13;;;;;;;3.93;2.80;;;27.50;65.80;;;;;;5082820;28;20472;-84
2022/07/27 11:04:46;;;;;;;4.83;3.90;;;27.10;67.70;;;;;;5083329;28;20590;-84
2022/07/27 11:07:19;;;;;;;3.70;3.40;;;26.40;67.70;;;;;;5080737;28;20428;-84
2022/07/27 11:09:47;;;;;;;4.40;3.23;;;25.90;69.60;;;;;;5082375;28;20504;-83
2022/07/27 11:12:14;;;;;;;4.83;3.27;;;25.70;73.00;;;;;;5082027;28;20995;-82
2022/07/27 11:14:55;;;;;;;3.30;3.00;;;25.70;73.00;;;;;;5083710;28;20429;-82
2022/07/27 11:17:26;;;;;;;4.40;3.67;;;25.50;71.80;;;;;;5081882;28;20435;-84
2022/07/27 11:19:56;;;;;;;6.87;3.10;;;25.40;71.50;;;;;;5084525;28;20470;-84
2022/07/27 11:22:29;;;;;;;4.20;3.80;;;25.50;72.30;;;;;;5080293;28;21004;-83
2022/07/27 11:24:55;;;;;;;6.40;3.27;;;25.60;69.80;;;;;;5082130;28;20521;-82
2022/07/27 11:27:20;;;;;;;5.53;3.30;;;26.20;72.00;;;;;;5081412;28;20561;-82
2022/07/27 11:29:46;;;;;;;7.23;2.90;;;27.20;69.40;;;;;;5082477;28;20608;-82
2022/07/27 11:32:17;;;;;;;7.67;3.60;;;28.00;67.90;;;;;;5083543;28;20218;-82
2022/07/27 11:34:43;;;;;;;4.70;3.20;;;27.90;66.30;;;;;;5086905;28;20178;-82
2022/07/27 11:37:18;;;;;;;4.50;3.27;;;27.30;64.50;;;;;;5080792;28;20446;-82
2022/07/27 11:39:44;;;;;;;4.17;3.47;;;27.20;66.10;;;;;;5082724;28;21112;-81
2022/07/27 11:42:10;;;;;;;7.53;3.20;;;27.40;70.20;;;;;;5082210;28;20467;-82
2022/07/27 11:44:38;;;;;;;3.03;2.70;;;27.50;71.60;;;;;;5082544;28;20772;-85
2022/07/27 11:47:04;;;;;;;3.00;2.70;;;27.10;69.20;;;;;;5084453;28;20170;-84
2022/07/27 11:49:31;;;;;;;3.80;2.83;;;26.40;71.10;;;;;;5088305;28;20451;-85
2022/07/27 11:52:08;;;;;;;3.20;2.80;;;26.20;73.20;;;;;;5083082;28;20448;-85
2022/07/27 11:54:37;;;;;;;3.43;3.00;;;25.90;74.50;;;;;;5079076;28;20437;-84
2022/07/27 11:57:05;;;;;;;4.07;2.63;;;25.70;74.50;;;;;;5080015;28;21547;-84
2022/07/27 11:59:38;;;;;;;5.67;2.67;;;26.20;76.00;;;;;;5084825;28;20445;-84
2022/07/27 12:02:14;;;;;;;6.70;2.83;;;26.70;71.90;;;;;;5084378;28;20451;-84
2022/07/27 12:04:43;;;;;;;3.47;3.13;;;26.60;70.70;;;;;;5083667;28;20436;-83
2022/07/27 12:07:09;;;;;;;3.60;3.03;;;26.60;70.00;;;;;;5083748;28;20460;-83
2022/07/27 12:09:38;;;;;;;3.80;3.00;;;26.50;69.50;;;;;;5082797;28;20461;-82
2022/07/27 12:12:10;;;;;;;3.20;2.63;;;26.60;67.20;;;;;;5083048;28;20469;-82
2022/07/27 12:14:39;;;;;;;6.23;2.50;;;26.40;69.30;;;;;;5083991;28;20786;-83
2022/07/27 12:17:10;;;;;;;4.80;2.70;;;26.60;68.30;;;;;;5080115;28;20498;-82
2022/07/27 12:19:36;;;;;;;2.93;2.53;;;27.10;67.70;;;;;;5083475;28;20471;-82
2022/07/27 12:22:01;;;;;;;3.30;2.90;;;26.80;67.10;;;;;;5078582;28;20553;-83
2022/07/27 12:24:32;;;;;;;5.87;2.80;;;26.70;65.60;;;;;;5080327;28;21105;-84
2022/07/27 12:27:03;;;;;;;3.30;2.90;;;26.90;68.80;;;;;;5078169;28;21585;-85
2022/07/27 12:29:28;;;;;;;7.50;3.13;;;26.50;69.80;;;;;;5080462;28;20428;-84
2022/07/27 12:32:01;;;;;;;9.70;3.10;;;26.10;70.70;;;;;;5080490;28;20453;-84
2022/07/27 12:34:34;;;;;;;8.67;3.23;;;25.70;72.60;;;;;;5080001;28;20430;-84
2022/07/27 12:37:00;;;;;;;3.13;2.83;;;25.30;73.80;;;;;;5081558;28;20497;-83
2022/07/27 12:39:27;;;;;;;8.17;3.60;;;25.30;75.40;;;;;;5078210;28;20420;-84
2022/07/27 12:42:04;;;;;;;8.70;2.43;;;25.80;73.40;;;;;;5077167;28;21000;-83
2022/07/27 12:44:35;;;;;;;4.80;2.77;;;26.10;72.60;;;;;;5082427;28;20462;-83
2022/07/27 12:47:39;;;;;;;3.37;2.30;;;26.20;73.10;;;;;;5077844;28;21115;-83
2022/07/27 12:50:08;;;;;;;3.93;3.53;;;26.40;71.40;;;;;;5082820;28;20448;-82